首页
METAR-TAF:

METAR-TAF

机场 :

Naval Air Station Whidbey Island (Ault Field)

橡港, 华盛顿, 美国

纬度: 48-20-57N, 经度: 122-39-02W, 海拔: 14米

当前天气观测

该预报发布于1小时和31分钟前的23:53 UTC
风速7节,风向西
温度 12°C
湿度 82%
气压 1017 hPa
能見度: 16.1公里
散云层高于3500英尺
散云层高于6500英尺
多云层高于12000英尺

METAR: KNUW 162353Z 27007KT 10SM SCT035 SCT065 BKN120 12/09 A3002 RMK SLP170 T01170089 10122 20106 56012

时间: 18:24 (01:24 UTC)

预报

预报有效从16日的 23点(UTC)到 17日的 23点(UTC)
风速6节,风向多变
能见度10公里或以上
散云层高于3500英尺
散云层高于6000英尺
多云层高于12000英尺
成为
从 17日的 02点(UTC)到 17日的 04点(UTC)
风速11节,风向西
能见度10公里或以上
散云层高于2000英尺
多云层高于2800英尺
阴天层高于4500英尺
从 17日的 1200点(UTC)
风速8节,风向西南
能见度10公里或以上
多云层高于2000英尺
阴天层高于3500英尺
短暂存在
从 17日的 15点(UTC)到 17日的 19点(UTC)
风速6节,风向多变
能見度: 8000
多云层高于1000英尺
轻雾
从 17日的 2000点(UTC)
风速6节,风向多变
能见度10公里或以上
少量云层高于1800英尺
散云层高于2500英尺
多云层高于4000英尺

TAF: KNUW 1623/1723 VRB06KT 9999 SCT035 SCT060 BKN120 QNH2996INS BECMG 1702/1704 26011KT 9999 SCT020 BKN028 OVC045 QNH2997INS FM171200 22008KT 9999 BKN020 OVC035 QNH2994INS TEMPO 1715/1719 VRB06KT 8000 BR BKN010 FM172000 VRB06KT 9999 FEW018 SCT025 BKN040 QNH3000INS TX15/1722Z TN08/1712Z FS30205

超过4000个机场的气象观测和天气预报(METAR&TAF报告)。

可查询的气象台以黄色和红色小点在地图上表示。

将鼠标移到小点上方,可查看气象台名称。

然后点击查看天气观测和预报。

如需切换地图:点击带黑十字的绿色按钮放大地图;点击带横线的绿色按钮缩小地图;或者点击绿色箭头查看邻近地区的地图。


METAR-TAF: